Austinville, Pennsylvania
Current Conditions -  °F | °C
As of 8:53 PM on Tuesday 21 Oct 2014 (Local Time) from KELM Reporting Station
Overcast Overcast  
Wind Chill: 49°   Ceiling: 1200
Heat Index: 49°   Visibility: 10mi
Dew Point: 48°   Wind: 0mph
Humidity: 97%   Direction: NA
Pressure: 29.95"   Gusts: NA
Location:  41.8495°N, 76.7925°W
Report Text: KELM 220053Z 00000KT 10SM OVC012 09/09 A2995 RMK AO2 SLP144 T00940089
Loading
Personal Weather Stations






























Interactive Weather Map
Tropical Storm Tracking
New forecast layout! Learn more

10-Day Weather Forecast

Advertisements
Track Severe Weather on mobile